createdAt,value
2023-10-03T00:02:55.398Z,10.20
2023-10-03T00:06:58.376Z,10.09
2023-10-03T00:10:59.902Z,10.07
2023-10-03T00:15:01.407Z,10.08
2023-10-03T00:19:03.154Z,10.19
2023-10-03T00:23:06.327Z,10.03
2023-10-03T00:27:07.849Z,10.22
2023-10-03T00:31:09.446Z,10.21
2023-10-03T00:35:11.132Z,10.06
2023-10-03T00:39:13.975Z,10.13
2023-10-03T00:43:15.535Z,10.21
2023-10-03T00:47:17.099Z,10.14
2023-10-03T00:51:18.850Z,9.87
2023-10-03T00:55:22.512Z,9.84
2023-10-03T00:59:24.346Z,9.85
2023-10-03T01:03:27.364Z,10.00
2023-10-03T01:07:28.847Z,10.08
2023-10-03T01:11:31.764Z,9.81
2023-10-03T01:15:33.312Z,9.76
2023-10-03T01:19:34.833Z,9.74
2023-10-03T01:23:37.802Z,9.95
2023-10-03T01:27:39.511Z,10.00
2023-10-03T01:31:41.338Z,9.96
2023-10-03T01:35:42.863Z,9.73
2023-10-03T01:39:45.759Z,9.83
2023-10-03T01:43:47.260Z,9.79
2023-10-03T01:47:49.242Z,9.83
2023-10-03T01:51:50.779Z,9.73
2023-10-03T01:55:53.666Z,9.59
2023-10-03T01:59:55.279Z,9.59
2023-10-03T02:03:56.960Z,9.58
2023-10-03T02:07:58.623Z,9.77
2023-10-03T02:12:01.488Z,9.55
2023-10-03T02:16:03.141Z,9.56
2023-10-03T02:20:05.616Z,9.83
2023-10-03T02:24:07.995Z,9.57
2023-10-03T02:28:10.928Z,9.39
2023-10-03T02:32:12.476Z,9.50
2023-10-03T02:36:13.992Z,9.30
2023-10-03T02:40:15.682Z,9.28
2023-10-03T02:44:18.652Z,9.31
2023-10-03T02:48:20.486Z,9.32
2023-10-03T02:52:22.119Z,9.27
2023-10-03T02:56:23.815Z,9.16
2023-10-03T03:00:26.877Z,9.26
2023-10-03T03:04:28.520Z,9.16
2023-10-03T03:08:30.261Z,9.13
2023-10-03T03:12:31.874Z,9.09
2023-10-03T03:16:34.726Z,9.22
2023-10-03T03:20:36.286Z,9.06
2023-10-03T03:24:37.937Z,9.17
2023-10-03T03:28:40.312Z,9.20
2023-10-03T03:32:43.354Z,9.16
2023-10-03T03:36:44.792Z,9.48
2023-10-03T03:40:46.502Z,9.19
2023-10-03T03:44:48.073Z,9.33
2023-10-03T03:48:50.936Z,9.26
2023-10-03T03:52:52.461Z,9.49
2023-10-03T03:56:54.020Z,9.42
2023-10-03T04:00:55.619Z,9.57
2023-10-03T04:04:58.663Z,9.44
2023-10-03T04:09:07.108Z,9.17
2023-10-03T04:13:09.783Z,9.21
2023-10-03T04:17:11.298Z,9.31
2023-10-03T04:21:14.198Z,9.08
2023-10-03T04:25:15.990Z,9.14
2023-10-03T04:29:17.499Z,9.13
2023-10-03T04:33:19.204Z,9.26
2023-10-03T04:37:22.280Z,9.61
2023-10-03T04:41:23.841Z,9.73
2023-10-03T04:45:25.837Z,9.72
2023-10-03T04:49:27.368Z,9.77
2023-10-03T04:53:30.824Z,9.51
2023-10-03T04:57:32.365Z,9.61
2023-10-03T05:01:33.888Z,9.64
2023-10-03T05:05:35.574Z,9.75
2023-10-03T05:09:38.481Z,9.79
2023-10-03T05:13:40.192Z,9.84
2023-10-03T05:17:42.083Z,9.66
2023-10-03T05:21:43.657Z,9.71
2023-10-03T05:25:46.520Z,9.88
2023-10-03T05:29:48.056Z,9.97
2023-10-03T05:33:49.699Z,9.97
2023-10-03T05:37:51.272Z,9.89
2023-10-03T05:41:54.217Z,9.94
2023-10-03T05:45:55.758Z,9.95
2023-10-03T05:49:57.377Z,10.05
2023-10-03T05:53:58.948Z,10.45
2023-10-03T05:58:03.649Z,10.58
2023-10-03T06:02:05.574Z,10.67
2023-10-03T06:06:07.165Z,10.87
2023-10-03T06:10:10.123Z,10.96
2023-10-03T06:14:13.103Z,11.02
2023-10-03T06:18:14.707Z,11.38
2023-10-03T06:22:16.246Z,11.46
2023-10-03T06:26:17.796Z,11.99
2023-10-03T06:30:20.751Z,12.29
2023-10-03T06:34:22.274Z,12.43
2023-10-03T06:38:23.890Z,12.55
2023-10-03T06:42:25.504Z,12.91
2023-10-03T06:46:28.419Z,12.97
2023-10-03T06:50:30.097Z,13.18
2023-10-03T06:54:31.798Z,13.64
2023-10-03T06:58:33.426Z,15.55
2023-10-03T07:02:36.385Z,17.80
2023-10-03T07:06:38.100Z,18.27
2023-10-03T07:10:39.753Z,18.35
2023-10-03T07:14:41.412Z,19.86
2023-10-03T07:18:44.450Z,18.92
2023-10-03T07:22:46.085Z,20.89
2023-10-03T07:26:47.682Z,21.99
2023-10-03T07:30:49.299Z,20.50
2023-10-03T07:34:52.209Z,21.11
2023-10-03T07:38:53.603Z,19.73
2023-10-03T07:42:55.183Z,20.03
2023-10-03T07:46:56.896Z,19.05
2023-10-03T07:50:59.858Z,18.30
2023-10-03T07:55:01.246Z,18.27
2023-10-03T07:59:05.227Z,18.90
2023-10-03T08:03:07.733Z,18.47
2023-10-03T08:07:10.758Z,18.99
2023-10-03T08:11:12.114Z,18.52
2023-10-03T08:15:14.585Z,18.51
2023-10-03T08:19:17.150Z,18.20
2023-10-03T08:23:20.048Z,17.69
2023-10-03T08:27:21.563Z,17.63
2023-10-03T08:31:23.103Z,17.70
2023-10-03T08:35:24.971Z,17.87
2023-10-03T08:39:28.339Z,18.09
2023-10-03T08:43:30.480Z,18.29
2023-10-03T08:47:32.362Z,18.02
2023-10-03T08:51:34.141Z,18.59
2023-10-03T08:55:37.040Z,18.93
2023-10-03T08:59:38.475Z,18.86
2023-10-03T09:03:40.460Z,19.69
2023-10-03T09:07:45.260Z,19.27
2023-10-03T09:11:48.200Z,19.40
2023-10-03T09:15:50.601Z,19.14
2023-10-03T09:19:52.142Z,19.57
2023-10-03T09:23:54.945Z,19.49
2023-10-03T09:28:03.897Z,19.69
2023-10-03T09:32:06.899Z,19.30
2023-10-03T09:36:09.556Z,19.28
2023-10-03T09:40:11.808Z,19.67
2023-10-03T09:44:15.903Z,20.08
2023-10-03T09:48:18.068Z,20.43
2023-10-03T09:52:19.730Z,20.60
2023-10-03T09:56:21.552Z,20.88
2023-10-03T10:00:25.189Z,20.89
2023-10-03T10:04:28.747Z,20.89
2023-10-03T10:08:41.213Z,21.37
2023-10-03T10:13:07.279Z,21.48
2023-10-03T10:17:19.104Z,21.22
2023-10-03T10:21:24.203Z,21.62
2023-10-03T10:25:25.911Z,22.05
2023-10-03T10:29:27.540Z,22.10
2023-10-03T10:33:30.536Z,22.10
2023-10-03T10:37:49.898Z,22.05
2023-10-03T10:42:09.105Z,22.13
2023-10-03T10:46:32.539Z,21.94
2023-10-03T10:51:08.778Z,22.19
2023-10-03T10:55:11.076Z,22.33
2023-10-03T10:59:12.607Z,22.35
2023-10-03T11:03:21.275Z,22.57
2023-10-03T11:07:25.381Z,22.52
2023-10-03T11:11:36.641Z,22.81
2023-10-03T11:15:38.216Z,22.86
2023-10-03T11:19:39.897Z,22.85
2023-10-03T11:24:09.809Z,22.80
2023-10-03T11:28:11.385Z,22.79
2023-10-03T11:32:21.295Z,22.90
2023-10-03T11:36:22.815Z,23.10
2023-10-03T11:40:30.175Z,23.09
2023-10-03T11:44:31.984Z,23.47
2023-10-03T11:48:33.582Z,23.20
2023-10-03T11:52:35.554Z,22.95
2023-10-03T11:56:43.681Z,22.78
2023-10-03T12:00:45.714Z,22.81
2023-10-03T12:04:47.820Z,23.21
2023-10-03T12:08:49.406Z,23.42
2023-10-03T12:12:53.118Z,23.61
2023-10-03T12:16:54.758Z,23.91
2023-10-03T12:20:56.276Z,24.11
2023-10-03T12:24:57.917Z,24.20
2023-10-03T12:29:00.856Z,24.27
2023-10-03T12:33:02.673Z,24.35
2023-10-03T12:37:04.357Z,24.39
2023-10-03T12:41:05.908Z,24.52
2023-10-03T12:45:10.298Z,24.77
2023-10-03T12:49:11.833Z,24.72
2023-10-03T12:53:13.349Z,24.96
2023-10-03T12:57:15.101Z,25.06
2023-10-03T13:01:18.188Z,25.11
2023-10-03T13:05:20.441Z,25.08
2023-10-03T13:09:22.033Z,25.06
2023-10-03T13:13:23.558Z,25.08
2023-10-03T13:17:26.471Z,25.34
2023-10-03T13:21:28.125Z,25.35
2023-10-03T13:25:29.650Z,25.25
2023-10-03T13:29:31.181Z,25.27
2023-10-03T13:33:34.118Z,25.42
2023-10-03T13:37:35.712Z,25.26
2023-10-03T13:41:37.428Z,25.29
2023-10-03T13:45:38.969Z,25.43
2023-10-03T13:49:41.870Z,25.35
2023-10-03T13:53:43.415Z,25.38
2023-10-03T13:57:44.937Z,25.35
2023-10-03T14:01:46.572Z,25.45
2023-10-03T14:05:49.644Z,25.44
2023-10-03T14:09:51.240Z,25.35
2023-10-03T14:13:54.142Z,25.29
2023-10-03T14:17:55.805Z,25.38
2023-10-03T14:21:58.478Z,25.28
2023-10-03T14:26:01.210Z,25.22
2023-10-03T14:30:03.663Z,25.26
2023-10-03T14:34:05.480Z,25.34
2023-10-03T14:38:07.043Z,25.37
2023-10-03T14:42:09.967Z,25.19
2023-10-03T14:46:11.718Z,25.27
2023-10-03T14:50:13.346Z,25.40
2023-10-03T14:54:16.362Z,25.25
2023-10-03T14:58:19.320Z,25.16
2023-10-03T15:02:20.875Z,25.01
2023-10-03T15:06:22.535Z,25.06
2023-10-03T15:10:24.081Z,24.96
2023-10-03T15:14:27.537Z,24.95
2023-10-03T15:18:30.910Z,24.89
2023-10-03T15:22:32.592Z,24.83
2023-10-03T15:26:35.006Z,24.76
2023-10-03T15:30:44.019Z,24.60
2023-10-03T15:34:45.573Z,24.57
2023-10-03T15:38:47.125Z,24.58
2023-10-03T15:42:48.644Z,24.57
2023-10-03T15:46:51.539Z,24.64
2023-10-03T15:50:53.063Z,24.54
2023-10-03T15:54:54.870Z,24.57
2023-10-03T15:58:56.394Z,24.49
2023-10-03T16:03:00.179Z,24.34
2023-10-03T16:07:01.745Z,24.09
2023-10-03T16:11:03.906Z,23.89
2023-10-03T16:15:06.500Z,23.62
2023-10-03T16:19:09.371Z,23.46
2023-10-03T16:23:10.997Z,23.19
2023-10-03T16:27:13.035Z,23.02
2023-10-03T16:31:15.042Z,22.83
2023-10-03T16:35:18.185Z,22.63
2023-10-03T16:39:19.899Z,22.53
2023-10-03T16:43:21.642Z,22.40
2023-10-03T16:47:23.310Z,22.34
2023-10-03T16:51:26.247Z,22.27
2023-10-03T16:55:27.893Z,22.12
2023-10-03T16:59:29.548Z,22.11
2023-10-03T17:03:31.354Z,22.25
2023-10-03T17:07:34.544Z,22.28
2023-10-03T17:11:36.174Z,22.17
2023-10-03T17:15:37.695Z,22.16
2023-10-03T17:19:39.234Z,22.22
2023-10-03T17:23:42.177Z,22.13
2023-10-03T17:27:43.929Z,22.08
2023-10-03T17:31:45.455Z,21.98
2023-10-03T17:35:47.018Z,21.95
2023-10-03T17:39:50.050Z,21.96
2023-10-03T17:43:51.768Z,21.95
2023-10-03T17:47:53.622Z,21.91
2023-10-03T17:51:55.337Z,21.88
2023-10-03T17:55:58.234Z,21.98
2023-10-03T18:00:06.662Z,21.05
2023-10-03T18:04:09.022Z,19.10
2023-10-03T18:08:10.889Z,18.06
2023-10-03T18:12:13.906Z,17.89
2023-10-03T18:16:15.530Z,17.90
2023-10-03T18:20:18.281Z,17.73
2023-10-03T18:24:20.027Z,17.59
2023-10-03T18:28:22.942Z,17.41
2023-10-03T18:32:24.309Z,17.03
2023-10-03T18:36:26.095Z,16.87
2023-10-03T18:40:27.658Z,16.39
2023-10-03T18:44:30.567Z,16.25
2023-10-03T18:48:32.155Z,16.07
2023-10-03T18:52:35.500Z,15.81
2023-10-03T18:56:37.096Z,15.78
2023-10-03T19:00:40.053Z,15.62
2023-10-03T19:04:41.635Z,15.59
2023-10-03T19:08:43.212Z,15.55
2023-10-03T19:12:44.744Z,15.32
2023-10-03T19:16:47.818Z,15.36
2023-10-03T19:20:49.308Z,15.27
2023-10-03T19:24:51.047Z,15.21
2023-10-03T19:28:52.658Z,15.18
2023-10-03T19:32:55.650Z,15.14
2023-10-03T19:36:57.126Z,15.15
2023-10-03T19:40:58.759Z,15.11
2023-10-03T19:45:00.554Z,15.03
2023-10-03T19:49:03.665Z,14.99
2023-10-03T19:53:05.472Z,14.90
2023-10-03T19:57:07.059Z,14.74
2023-10-03T20:01:08.665Z,14.74
2023-10-03T20:05:12.041Z,14.53
2023-10-03T20:09:13.591Z,14.43
2023-10-03T20:13:15.168Z,14.41
2023-10-03T20:17:16.757Z,14.42
2023-10-03T20:21:19.817Z,14.24
2023-10-03T20:25:21.222Z,14.36
2023-10-03T20:29:22.746Z,14.24
2023-10-03T20:33:24.541Z,14.12
2023-10-03T20:37:27.516Z,14.02
2023-10-03T20:41:29.039Z,13.95
2023-10-03T20:45:30.571Z,14.03
2023-10-03T20:49:32.117Z,14.06
2023-10-03T20:53:35.197Z,14.25
2023-10-03T20:57:36.664Z,13.93
2023-10-03T21:01:38.210Z,13.79
2023-10-03T21:05:40.678Z,13.88
2023-10-03T21:09:43.730Z,13.81
2023-10-03T21:13:45.250Z,13.91
2023-10-03T21:17:46.823Z,13.91
2023-10-03T21:21:48.511Z,13.65
2023-10-03T21:25:51.378Z,13.63
2023-10-03T21:29:52.995Z,13.71
2023-10-03T21:33:54.562Z,13.71
2023-10-03T21:37:56.441Z,13.77
2023-10-03T21:41:59.339Z,13.68
2023-10-03T21:46:01.029Z,13.86
2023-10-03T21:50:02.612Z,13.98
2023-10-03T21:54:04.457Z,13.95
2023-10-03T21:58:07.340Z,13.98
2023-10-03T22:02:08.885Z,14.02
2023-10-03T22:06:10.656Z,13.89
2023-10-03T22:10:12.196Z,13.71
2023-10-03T22:14:15.709Z,13.74
2023-10-03T22:18:17.420Z,13.64
2023-10-03T22:22:19.057Z,13.78
2023-10-03T22:26:20.803Z,13.86
2023-10-03T22:30:23.652Z,13.94
2023-10-03T22:34:25.160Z,13.96
2023-10-03T22:38:26.662Z,14.00
2023-10-03T22:42:28.262Z,14.05
2023-10-03T22:46:31.319Z,13.99
2023-10-03T22:50:32.733Z,13.96
2023-10-03T22:54:34.321Z,13.98
2023-10-03T22:58:35.858Z,13.88
2023-10-03T23:02:38.745Z,13.80
2023-10-03T23:06:40.313Z,13.80
2023-10-03T23:10:41.885Z,13.83
2023-10-03T23:14:43.430Z,13.82
2023-10-03T23:18:46.350Z,13.71
2023-10-03T23:22:47.956Z,13.31
2023-10-03T23:26:49.488Z,13.38
2023-10-03T23:30:51.023Z,13.30
2023-10-03T23:34:53.900Z,13.19
2023-10-03T23:38:55.469Z,12.87
2023-10-03T23:42:57.014Z,12.14
2023-10-03T23:46:58.534Z,11.84
2023-10-03T23:51:01.430Z,11.57
2023-10-03T23:55:03.530Z,11.68
2023-10-03T23:59:05.454Z,11.53
